createdAt,value
2022-12-20T00:00:57.940Z,-3.17
2022-12-20T00:02:03.994Z,-3.16
2022-12-20T00:03:07.466Z,-3.09
2022-12-20T00:04:15.702Z,-3.21
2022-12-20T00:05:19.942Z,-3.15
2022-12-20T00:06:27.614Z,-3.16
2022-12-20T00:07:31.101Z,-3.37
2022-12-20T00:08:38.333Z,-3.34
2022-12-20T00:09:41.764Z,-3.27
2022-12-20T00:10:51.207Z,-3.22
2022-12-20T00:11:54.769Z,-3.17
2022-12-20T00:13:00.807Z,-3.12
2022-12-20T00:14:04.266Z,-3.12
2022-12-20T00:15:11.391Z,-3.10
2022-12-20T00:16:19.454Z,-3.15
2022-12-20T00:17:25.795Z,-3.07
2022-12-20T00:18:29.240Z,-3.06
2022-12-20T00:19:35.233Z,-3.05
2022-12-20T00:20:38.748Z,-3.04
2022-12-20T00:21:45.503Z,-3.04
2022-12-20T00:22:49.597Z,-3.08
2022-12-20T00:24:01.573Z,-3.07
2022-12-20T00:25:05.989Z,-3.06
2022-12-20T00:26:17.559Z,-3.04
2022-12-20T00:27:22.383Z,-3.03
2022-12-20T00:28:28.491Z,-3.03
2022-12-20T00:29:35.403Z,-2.98
2022-12-20T00:30:38.792Z,-2.96
2022-12-20T00:31:44.996Z,-3.01
2022-12-20T00:32:49.317Z,-2.96
2022-12-20T00:33:58.742Z,-2.95
2022-12-20T00:35:02.000Z,-2.91
2022-12-20T00:36:09.790Z,-2.84
2022-12-20T00:37:13.153Z,-2.83
2022-12-20T00:38:20.197Z,-2.85
2022-12-20T00:39:23.380Z,-2.84
2022-12-20T00:40:29.384Z,-2.90
2022-12-20T00:41:36.450Z,-2.88
2022-12-20T00:42:42.390Z,-2.88
2022-12-20T00:43:47.556Z,-2.84
2022-12-20T00:44:53.534Z,-2.88
2022-12-20T00:45:57.332Z,-2.88
2022-12-20T00:47:03.365Z,-2.88
2022-12-20T00:48:07.283Z,-2.84
2022-12-20T00:49:14.448Z,-2.83
2022-12-20T00:50:18.051Z,-2.86
2022-12-20T00:51:27.679Z,-2.88
2022-12-20T00:52:31.178Z,-2.92
2022-12-20T00:53:38.038Z,-2.98
2022-12-20T00:54:42.456Z,-2.90
2022-12-20T00:55:50.301Z,-2.87
2022-12-20T00:56:58.757Z,-2.91
2022-12-20T00:58:02.003Z,-2.93
2022-12-20T00:59:07.851Z,-2.97
2022-12-20T01:00:13.498Z,-3.05
2022-12-20T01:01:24.226Z,-2.93
2022-12-20T01:02:27.900Z,-2.86
2022-12-20T01:03:34.117Z,-2.84
2022-12-20T01:04:38.631Z,-2.80
2022-12-20T01:05:54.770Z,-2.75
2022-12-20T01:06:58.611Z,-2.77
2022-12-20T01:08:04.950Z,-2.76
2022-12-20T01:09:08.291Z,-2.75
2022-12-20T01:10:15.221Z,-2.76
2022-12-20T01:11:23.097Z,-2.82
2022-12-20T01:12:31.540Z,-2.73
2022-12-20T01:13:39.045Z,-2.73
2022-12-20T01:14:45.369Z,-2.76
2022-12-20T01:15:49.986Z,-2.85
2022-12-20T01:16:57.315Z,-2.82
2022-12-20T01:18:01.074Z,-2.76
2022-12-20T01:19:08.081Z,-2.75
2022-12-20T01:20:12.727Z,-2.72
2022-12-20T01:21:22.042Z,-2.76
2022-12-20T01:22:26.239Z,-2.89
2022-12-20T01:23:32.746Z,-2.79
2022-12-20T01:24:38.634Z,-2.82
2022-12-20T01:25:41.902Z,-2.75
2022-12-20T01:26:49.325Z,-2.80
2022-12-20T01:27:57.952Z,-2.75
2022-12-20T01:29:04.321Z,-2.72
2022-12-20T01:30:10.468Z,-2.72
2022-12-20T01:31:20.408Z,-2.68
2022-12-20T01:32:23.788Z,-2.65
2022-12-20T01:33:30.801Z,-2.68
2022-12-20T01:34:34.235Z,-2.67
2022-12-20T01:35:40.166Z,-2.77
2022-12-20T01:36:43.519Z,-2.79
2022-12-20T01:37:49.614Z,-2.81
2022-12-20T01:38:58.479Z,-2.76
2022-12-20T01:40:04.445Z,-2.74
2022-12-20T01:41:08.621Z,-2.81
2022-12-20T01:42:18.020Z,-2.77
2022-12-20T01:43:25.714Z,-2.78
2022-12-20T01:45:10.850Z,-2.75
2022-12-20T01:46:14.349Z,-2.82
2022-12-20T01:47:21.545Z,-2.79
2022-12-20T01:48:27.739Z,-2.79
2022-12-20T01:49:41.630Z,-2.87
2022-12-20T01:50:45.528Z,-2.89
2022-12-20T01:51:59.441Z,-2.92
2022-12-20T01:53:06.051Z,-3.03
2022-12-20T01:54:22.208Z,-3.01
2022-12-20T01:55:30.746Z,-2.97
2022-12-20T01:56:39.320Z,-2.96
2022-12-20T01:57:52.061Z,-3.01
2022-12-20T01:59:03.851Z,-3.07
2022-12-20T02:00:10.099Z,-3.19
2022-12-20T02:01:23.453Z,-3.10
2022-12-20T02:02:28.189Z,-3.13
2022-12-20T02:03:35.970Z,-3.12
2022-12-20T02:04:39.818Z,-3.03
2022-12-20T02:05:49.788Z,-3.04
2022-12-20T02:06:54.554Z,-3.03
2022-12-20T02:08:01.236Z,-3.00
2022-12-20T02:09:08.702Z,-3.06
2022-12-20T02:10:16.655Z,-3.00
2022-12-20T02:12:03.989Z,-3.01
2022-12-20T02:13:35.406Z,-2.91
2022-12-20T02:15:09.820Z,-2.94
2022-12-20T02:16:25.230Z,-2.84
2022-12-20T02:17:53.392Z,-2.94
2022-12-20T02:19:18.008Z,-2.94
2022-12-20T02:21:01.319Z,-2.89
2022-12-20T02:22:26.531Z,-2.93
2022-12-20T02:24:04.864Z,-2.91
2022-12-20T02:25:49.562Z,-2.96
2022-12-20T02:27:46.509Z,-2.94
2022-12-20T02:29:23.896Z,-2.94
2022-12-20T02:30:47.464Z,-2.83
2022-12-20T02:32:05.369Z,-2.85
2022-12-20T02:33:17.524Z,-2.84
2022-12-20T02:34:26.302Z,-2.83
2022-12-20T02:35:36.322Z,-2.79
2022-12-20T02:36:40.255Z,-2.82
2022-12-20T02:38:00.830Z,-2.92
2022-12-20T02:39:05.132Z,-2.98
2022-12-20T02:40:13.570Z,-2.92
2022-12-20T02:41:25.918Z,-2.90
2022-12-20T02:42:36.955Z,-2.89
2022-12-20T02:44:01.405Z,-2.89
2022-12-20T02:45:18.384Z,-2.87
2022-12-20T02:46:31.008Z,-2.88
2022-12-20T02:47:43.104Z,-2.98
2022-12-20T02:48:54.929Z,-3.01
2022-12-20T02:49:59.072Z,-2.95
2022-12-20T02:51:11.736Z,-2.97
2022-12-20T02:52:18.333Z,-3.18
2022-12-20T02:53:26.627Z,-3.02
2022-12-20T02:54:31.233Z,-3.08
2022-12-20T02:55:51.097Z,-3.03
2022-12-20T02:57:06.679Z,-2.96
2022-12-20T02:58:29.504Z,-3.07
2022-12-20T02:59:45.576Z,-3.00
2022-12-20T03:00:59.701Z,-3.01
2022-12-20T03:02:09.034Z,-3.01
2022-12-20T03:03:25.231Z,-3.05
2022-12-20T03:04:38.161Z,-3.14
2022-12-20T03:05:48.090Z,-3.13
2022-12-20T03:07:05.143Z,-3.26
2022-12-20T03:08:09.532Z,-3.26
2022-12-20T03:09:15.431Z,-3.21
2022-12-20T03:10:20.677Z,-3.16
2022-12-20T03:11:26.823Z,-3.16
2022-12-20T03:12:30.251Z,-3.20
2022-12-20T03:13:37.022Z,-3.18
2022-12-20T03:14:44.750Z,-3.20
2022-12-20T03:15:53.086Z,-3.22
2022-12-20T03:16:56.691Z,-3.22
2022-12-20T03:18:05.457Z,-3.26
2022-12-20T03:19:09.659Z,-3.31
2022-12-20T03:20:16.322Z,-3.35
2022-12-20T03:21:19.934Z,-3.32
2022-12-20T03:22:26.280Z,-3.31
2022-12-20T03:23:29.684Z,-3.32
2022-12-20T03:24:36.845Z,-3.23
2022-12-20T03:25:44.905Z,-3.25
2022-12-20T03:26:57.259Z,-3.20
2022-12-20T03:28:01.536Z,-3.15
2022-12-20T03:29:08.557Z,-3.19
2022-12-20T03:30:15.330Z,-3.15
2022-12-20T03:31:21.503Z,-3.16
2022-12-20T03:32:28.539Z,-3.26
2022-12-20T03:33:37.491Z,-3.23
2022-12-20T03:34:43.472Z,-3.22
2022-12-20T03:35:52.186Z,-3.25
2022-12-20T03:36:55.607Z,-3.17
2022-12-20T03:38:01.543Z,-3.11
2022-12-20T03:39:05.577Z,-3.09
2022-12-20T03:40:17.360Z,-3.07
2022-12-20T03:41:23.999Z,-3.14
2022-12-20T03:42:32.096Z,-3.20
2022-12-20T03:43:35.530Z,-3.13
2022-12-20T03:44:41.798Z,-3.12
2022-12-20T03:45:46.043Z,-3.06
2022-12-20T03:46:52.738Z,-3.14
2022-12-20T03:47:57.430Z,-3.18
2022-12-20T03:49:08.900Z,-3.23
2022-12-20T03:50:20.244Z,-3.17
2022-12-20T03:51:26.243Z,-3.19
2022-12-20T03:52:30.378Z,-3.16
2022-12-20T03:53:36.702Z,-3.14
2022-12-20T03:54:40.326Z,-3.10
2022-12-20T03:55:53.103Z,-3.12
2022-12-20T03:56:56.576Z,-3.09
2022-12-20T03:58:03.457Z,-3.11
2022-12-20T03:59:12.449Z,-3.15
2022-12-20T04:00:20.869Z,-3.13
2022-12-20T04:01:36.805Z,-3.15
2022-12-20T04:02:40.816Z,-3.23
2022-12-20T04:03:49.593Z,-3.14
2022-12-20T04:04:58.330Z,-3.12
2022-12-20T04:06:02.092Z,-3.10
2022-12-20T04:07:08.026Z,-3.13
2022-12-20T04:08:13.459Z,-3.14
2022-12-20T04:09:20.309Z,-3.21
2022-12-20T04:10:28.771Z,-3.17
2022-12-20T04:11:36.175Z,-3.18
2022-12-20T04:12:44.193Z,-3.12
2022-12-20T04:13:55.966Z,-3.21
2022-12-20T04:15:00.638Z,-3.19
2022-12-20T04:16:08.949Z,-3.18
2022-12-20T04:17:12.273Z,-3.18
2022-12-20T04:18:20.201Z,-3.19
2022-12-20T04:19:27.019Z,-3.16
2022-12-20T04:20:33.988Z,-3.26
2022-12-20T04:22:02.670Z,-3.26
2022-12-20T04:23:16.398Z,-3.19
2022-12-20T04:24:23.687Z,-3.25
2022-12-20T04:25:47.061Z,-3.27
2022-12-20T04:26:55.345Z,-3.29
2022-12-20T04:27:58.729Z,-3.19
2022-12-20T04:29:04.929Z,-3.20
2022-12-20T04:30:11.962Z,-3.16
2022-12-20T04:31:23.779Z,-3.22
2022-12-20T04:32:28.845Z,-3.22
2022-12-20T04:33:35.609Z,-3.25
2022-12-20T04:34:39.016Z,-3.36
2022-12-20T04:35:47.697Z,-3.29
2022-12-20T04:36:51.921Z,-3.27
2022-12-20T04:38:07.926Z,-3.26
2022-12-20T04:39:11.231Z,-3.16
2022-12-20T04:40:27.721Z,-3.17
2022-12-20T04:41:36.804Z,-3.22
2022-12-20T04:42:46.637Z,-3.28
2022-12-20T04:43:57.610Z,-3.30
2022-12-20T04:45:08.596Z,-3.27
2022-12-20T04:46:14.552Z,-3.29
2022-12-20T04:47:17.907Z,-3.28
2022-12-20T04:49:48.385Z,-3.31
2022-12-20T04:50:59.285Z,-3.22
2022-12-20T04:52:18.603Z,-3.29
2022-12-20T04:53:39.262Z,-3.35
2022-12-20T04:54:42.820Z,-3.26
2022-12-20T04:55:56.021Z,-3.19
2022-12-20T04:57:00.384Z,-3.13
2022-12-20T04:58:07.892Z,-3.14
2022-12-20T04:59:17.004Z,-3.22
2022-12-20T05:00:23.373Z,-3.25
2022-12-20T05:01:37.888Z,-3.12
2022-12-20T05:02:41.959Z,-3.27
2022-12-20T05:03:52.312Z,-3.21
2022-12-20T05:04:57.128Z,-3.30
2022-12-20T05:06:05.802Z,-3.26
2022-12-20T05:07:09.865Z,-3.18
2022-12-20T05:08:18.577Z,-3.21
2022-12-20T05:09:26.489Z,-3.22
2022-12-20T05:10:32.757Z,-3.23
2022-12-20T05:11:41.047Z,-3.24
2022-12-20T05:12:45.869Z,-3.20
2022-12-20T05:14:00.123Z,-3.17
2022-12-20T05:15:03.565Z,-3.16
2022-12-20T05:16:10.987Z,-3.19
2022-12-20T05:17:15.012Z,-3.18
2022-12-20T05:18:21.103Z,-3.13
2022-12-20T05:19:32.033Z,-3.25
2022-12-20T05:20:39.355Z,-3.12
2022-12-20T05:22:12.785Z,-3.16
2022-12-20T05:23:34.921Z,-3.08
2022-12-20T05:25:03.263Z,-3.07
2022-12-20T05:26:24.824Z,-3.13
2022-12-20T05:27:32.561Z,-3.19
2022-12-20T05:28:37.636Z,-3.21
2022-12-20T05:29:43.823Z,-3.17
2022-12-20T05:30:47.274Z,-3.17
2022-12-20T05:31:55.928Z,-3.25
2022-12-20T05:33:00.613Z,-3.21
2022-12-20T05:34:07.492Z,-3.29
2022-12-20T05:35:13.239Z,-3.22
2022-12-20T05:36:19.606Z,-3.18
2022-12-20T05:37:27.397Z,-3.25
2022-12-20T05:38:36.745Z,-3.19
2022-12-20T05:39:46.865Z,-3.22
2022-12-20T05:40:58.792Z,-3.29
2022-12-20T05:42:02.810Z,-3.24
2022-12-20T05:43:09.279Z,-3.21
2022-12-20T05:44:22.483Z,-3.29
2022-12-20T05:45:29.188Z,-3.23
2022-12-20T05:46:41.010Z,-3.18
2022-12-20T05:47:49.381Z,-3.24
2022-12-20T05:48:55.702Z,-3.25
2022-12-20T05:50:01.334Z,-3.27
2022-12-20T05:51:12.526Z,-3.25
2022-12-20T05:52:38.705Z,-3.26
2022-12-20T05:53:45.563Z,-3.27
2022-12-20T05:54:50.528Z,-3.23
2022-12-20T05:55:58.897Z,-3.32
2022-12-20T05:57:06.226Z,-3.27
2022-12-20T05:58:16.502Z,-3.28
2022-12-20T05:59:31.460Z,-3.22
2022-12-20T06:00:34.910Z,-3.23
2022-12-20T06:01:41.944Z,-3.22
2022-12-20T06:02:46.010Z,-3.24
2022-12-20T06:03:53.022Z,-3.26
2022-12-20T06:04:59.334Z,-3.24
2022-12-20T06:06:10.118Z,-3.26
2022-12-20T06:07:19.740Z,-3.30
2022-12-20T06:08:32.053Z,-3.23
2022-12-20T06:09:37.556Z,-3.31
2022-12-20T06:10:47.159Z,-3.33
2022-12-20T06:11:51.713Z,-3.35
2022-12-20T06:12:58.545Z,-3.32
2022-12-20T06:14:02.705Z,-3.39
2022-12-20T06:15:11.088Z,-3.47
2022-12-20T06:16:20.903Z,-3.45
2022-12-20T06:17:24.482Z,-3.39
2022-12-20T06:18:32.388Z,-3.50
2022-12-20T06:19:40.344Z,-3.50
2022-12-20T06:20:53.857Z,-3.47
2022-12-20T06:22:01.387Z,-3.49
2022-12-20T06:23:27.677Z,-3.51
2022-12-20T06:24:48.553Z,-3.48
2022-12-20T06:25:58.256Z,-3.51
2022-12-20T06:27:07.255Z,-3.49
2022-12-20T06:28:13.410Z,-3.46
2022-12-20T06:29:17.776Z,-3.47
2022-12-20T06:30:34.086Z,-3.44
2022-12-20T06:31:58.124Z,-3.51
2022-12-20T06:33:06.041Z,-3.52
2022-12-20T06:34:09.597Z,-3.50
2022-12-20T06:35:20.418Z,-3.49
2022-12-20T06:36:28.861Z,-3.54
2022-12-20T06:37:32.563Z,-3.54
2022-12-20T06:38:38.734Z,-3.52
2022-12-20T06:39:44.909Z,-3.48
2022-12-20T06:40:50.927Z,-3.58
2022-12-20T06:41:55.347Z,-3.44
2022-12-20T06:43:01.392Z,-3.42
2022-12-20T06:44:05.312Z,-3.57
2022-12-20T06:45:13.427Z,-3.45
2022-12-20T06:46:17.517Z,-3.40
2022-12-20T06:47:25.376Z,-3.39
2022-12-20T06:48:28.801Z,-3.40
2022-12-20T06:49:35.331Z,-3.39
2022-12-20T06:50:52.094Z,-3.35
2022-12-20T06:52:01.907Z,-3.32
2022-12-20T06:53:20.136Z,-3.27
2022-12-20T06:54:23.531Z,-3.27
2022-12-20T06:55:32.615Z,-3.24
2022-12-20T06:56:41.091Z,-3.20
2022-12-20T06:57:49.270Z,-3.26
2022-12-20T06:58:53.510Z,-3.22
2022-12-20T06:59:59.589Z,-3.22
2022-12-20T07:01:03.259Z,-3.38
2022-12-20T07:02:09.698Z,-3.24
2022-12-20T07:03:16.774Z,-3.30
2022-12-20T07:04:21.545Z,-3.30
2022-12-20T07:05:27.756Z,-3.31
2022-12-20T07:06:31.232Z,-3.27
2022-12-20T07:07:44.572Z,-3.26
2022-12-20T07:08:51.225Z,-3.20
2022-12-20T07:09:57.951Z,-3.27
2022-12-20T07:11:12.163Z,-3.23
2022-12-20T07:12:15.473Z,-3.20
2022-12-20T07:13:21.770Z,-3.14
2022-12-20T07:14:27.836Z,-3.16
2022-12-20T07:15:32.620Z,-3.13
2022-12-20T07:16:39.124Z,-3.12
2022-12-20T07:17:44.980Z,-3.17
2022-12-20T07:18:50.904Z,-3.15
2022-12-20T07:19:56.931Z,-3.16
2022-12-20T07:21:02.656Z,-3.11
2022-12-20T07:22:09.239Z,-3.12
2022-12-20T07:23:12.622Z,-3.13
2022-12-20T07:24:19.166Z,-3.09
2022-12-20T07:25:22.846Z,-3.17
2022-12-20T07:26:32.273Z,-3.12
2022-12-20T07:27:35.983Z,-3.16
2022-12-20T07:28:43.305Z,-3.19
2022-12-20T07:29:49.347Z,-3.04
2022-12-20T07:30:53.108Z,-3.17
2022-12-20T07:32:00.025Z,-3.13
2022-12-20T07:33:03.379Z,-3.00
2022-12-20T07:34:09.463Z,-3.00
2022-12-20T07:35:17.279Z,-2.99
2022-12-20T07:36:23.419Z,-2.93
2022-12-20T07:37:32.159Z,-2.87
2022-12-20T07:38:38.543Z,-2.83
2022-12-20T07:39:44.743Z,-2.79
2022-12-20T07:40:48.165Z,-2.83
2022-12-20T07:42:00.177Z,-2.77
2022-12-20T07:43:04.474Z,-2.75
2022-12-20T07:44:10.385Z,-2.76
2022-12-20T07:45:13.680Z,-2.73
2022-12-20T07:46:21.770Z,-2.83
2022-12-20T07:47:27.889Z,-2.74
2022-12-20T07:48:36.344Z,-2.69
2022-12-20T07:49:43.283Z,-2.68
2022-12-20T07:50:47.233Z,-2.64
2022-12-20T07:52:01.003Z,-2.66
2022-12-20T07:53:12.564Z,-2.62
2022-12-20T07:54:27.392Z,-2.57
2022-12-20T07:55:32.534Z,-2.56
2022-12-20T07:56:46.070Z,-2.50
2022-12-20T07:58:05.132Z,-2.54
2022-12-20T07:59:15.628Z,-2.43
2022-12-20T08:00:23.230Z,-2.52
2022-12-20T08:01:32.174Z,-2.48
2022-12-20T08:02:47.566Z,-2.58
2022-12-20T08:04:03.616Z,-2.73
2022-12-20T08:05:14.009Z,-2.78
2022-12-20T08:06:23.037Z,-2.65
2022-12-20T08:07:33.270Z,-2.68
2022-12-20T08:08:46.338Z,-2.64
2022-12-20T08:09:52.563Z,-2.72
2022-12-20T08:10:59.437Z,-2.60
2022-12-20T08:12:07.516Z,-2.64
2022-12-20T08:13:14.409Z,-2.55
2022-12-20T08:14:24.791Z,-2.63
2022-12-20T08:15:30.419Z,-2.48
2022-12-20T08:16:36.427Z,-2.45
2022-12-20T08:17:40.504Z,-2.45
2022-12-20T08:18:46.516Z,-2.46
2022-12-20T08:19:52.676Z,-2.52
2022-12-20T08:20:59.440Z,-2.47
2022-12-20T08:22:05.556Z,-2.40
2022-12-20T08:23:12.260Z,-2.31
2022-12-20T08:24:18.154Z,-2.36
2022-12-20T08:25:25.134Z,-2.46
2022-12-20T08:26:31.188Z,-2.36
2022-12-20T08:27:37.426Z,-2.22
2022-12-20T08:28:47.367Z,-2.24
2022-12-20T08:29:50.826Z,-2.22
2022-12-20T08:30:56.898Z,-2.23
2022-12-20T08:32:02.976Z,-2.13
2022-12-20T08:33:09.103Z,-2.12
2022-12-20T08:34:15.933Z,-2.09
2022-12-20T08:35:21.994Z,-2.04
2022-12-20T08:36:25.412Z,-2.08
2022-12-20T08:37:31.461Z,-2.09
2022-12-20T08:38:37.919Z,-1.95
2022-12-20T08:39:44.626Z,-1.80
2022-12-20T08:40:48.055Z,-1.74
2022-12-20T08:41:54.046Z,-1.71
2022-12-20T08:42:58.863Z,-1.59
2022-12-20T08:44:07.846Z,-1.45
2022-12-20T08:45:15.541Z,-1.39
2022-12-20T08:46:21.610Z,-1.19
2022-12-20T08:47:24.974Z,-1.18
2022-12-20T08:48:32.701Z,-1.27
2022-12-20T08:49:43.972Z,-1.37
2022-12-20T08:51:01.406Z,-1.28
2022-12-20T08:52:07.656Z,-1.28
2022-12-20T08:53:13.602Z,-1.22
2022-12-20T08:54:19.798Z,-1.25
2022-12-20T08:55:29.414Z,-1.19
2022-12-20T08:56:36.508Z,-1.04
2022-12-20T08:57:42.404Z,-1.08
2022-12-20T08:58:46.655Z,-1.08
2022-12-20T08:59:55.211Z,-0.97
2022-12-20T09:01:06.670Z,-0.88
2022-12-20T09:02:13.948Z,-0.76
2022-12-20T09:03:20.077Z,-0.87
2022-12-20T09:04:26.055Z,-0.75
2022-12-20T09:05:32.066Z,-0.64
2022-12-20T09:06:38.813Z,-0.43
2022-12-20T09:07:45.597Z,-0.45
2022-12-20T09:08:49.902Z,-0.42
2022-12-20T09:09:55.895Z,-0.40
2022-12-20T09:11:09.537Z,-0.80
2022-12-20T09:12:13.109Z,-0.77
2022-12-20T09:13:20.173Z,-0.70
2022-12-20T09:14:26.128Z,-0.78
2022-12-20T09:15:36.595Z,-0.76
2022-12-20T09:16:42.602Z,-0.75
2022-12-20T09:17:48.526Z,-0.77
2022-12-20T09:19:00.742Z,-0.76
2022-12-20T09:20:12.065Z,-0.73
2022-12-20T09:21:22.019Z,-0.70
2022-12-20T09:22:28.104Z,-0.71
2022-12-20T09:23:33.091Z,-0.73
2022-12-20T09:24:41.519Z,-0.83
2022-12-20T09:25:50.226Z,-0.82
2022-12-20T09:27:00.049Z,-0.87
2022-12-20T09:28:06.178Z,-0.82
2022-12-20T09:29:12.320Z,-0.79
2022-12-20T09:30:19.740Z,-0.97
2022-12-20T09:31:30.012Z,-0.95
2022-12-20T09:32:33.676Z,-0.85
2022-12-20T09:33:39.716Z,-0.98
2022-12-20T09:34:43.203Z,-0.95
2022-12-20T09:35:50.716Z,-0.93
2022-12-20T09:36:54.191Z,-0.95
2022-12-20T09:38:01.497Z,-0.88
2022-12-20T09:39:07.798Z,-0.88
2022-12-20T09:40:21.291Z,-1.00
2022-12-20T09:41:37.450Z,-0.85
2022-12-20T09:42:44.239Z,-0.75
2022-12-20T09:43:48.148Z,-0.76
2022-12-20T09:44:54.657Z,-0.72
2022-12-20T09:46:04.960Z,-0.82
2022-12-20T09:47:23.747Z,-0.91
2022-12-20T09:48:36.802Z,-0.99
2022-12-20T09:49:49.054Z,-0.84
2022-12-20T09:51:15.830Z,-0.74
2022-12-20T09:52:50.743Z,-0.40
2022-12-20T09:54:18.517Z,-0.06
2022-12-20T09:55:37.874Z,0.09
2022-12-20T09:57:04.580Z,0.23
2022-12-20T09:58:45.969Z,0.71
2022-12-20T09:59:52.210Z,0.84
2022-12-20T10:00:58.404Z,0.93
2022-12-20T10:02:19.487Z,1.01
2022-12-20T10:03:39.015Z,1.14
2022-12-20T10:04:45.539Z,1.25
2022-12-20T10:05:57.767Z,1.36
2022-12-20T10:07:39.253Z,1.62
2022-12-20T10:08:56.439Z,1.55
2022-12-20T10:10:35.766Z,1.19
2022-12-20T10:12:07.208Z,1.10
2022-12-20T10:13:49.657Z,1.01
2022-12-20T10:15:21.865Z,0.85
2022-12-20T10:16:48.021Z,0.48
2022-12-20T10:18:19.847Z,0.08
2022-12-20T10:20:08.742Z,-0.07
2022-12-20T10:21:35.816Z,-0.07
2022-12-20T10:22:55.643Z,0.05
2022-12-20T10:24:07.317Z,-0.07
2022-12-20T10:25:23.513Z,-0.10
2022-12-20T10:26:31.679Z,-0.17
2022-12-20T10:27:39.001Z,-0.17
2022-12-20T10:28:50.753Z,-0.37
2022-12-20T10:30:00.913Z,-0.36
2022-12-20T10:31:14.316Z,-0.33
2022-12-20T10:32:29.333Z,-0.57
2022-12-20T10:33:33.924Z,-0.49
2022-12-20T10:34:48.473Z,-0.45
2022-12-20T10:35:52.580Z,-0.44
2022-12-20T10:37:16.898Z,-0.41
2022-12-20T10:38:23.070Z,-0.48
2022-12-20T10:39:46.202Z,-0.40
2022-12-20T10:41:23.035Z,-0.70
2022-12-20T10:42:43.496Z,-0.76
2022-12-20T10:43:57.753Z,-0.76
2022-12-20T10:45:02.804Z,-0.79
2022-12-20T10:46:12.917Z,-0.82
2022-12-20T10:47:40.930Z,-0.78
2022-12-20T10:48:51.933Z,-0.87
2022-12-20T10:50:18.174Z,-0.94
2022-12-20T10:51:26.057Z,-0.87
2022-12-20T10:52:29.736Z,-0.88
2022-12-20T10:53:36.076Z,-0.86
2022-12-20T10:54:46.528Z,-1.00
2022-12-20T10:55:52.279Z,-1.17
2022-12-20T10:57:02.402Z,-1.08
2022-12-20T10:58:18.512Z,-1.15
2022-12-20T10:59:39.888Z,-0.96
2022-12-20T11:00:47.532Z,-0.86
2022-12-20T11:01:52.263Z,-0.88
2022-12-20T11:03:13.499Z,-0.79
2022-12-20T11:04:32.568Z,-0.81
2022-12-20T11:05:39.010Z,-0.73
2022-12-20T11:06:48.658Z,-0.82
2022-12-20T11:09:32.715Z,-0.86
2022-12-20T11:10:36.545Z,-0.83
2022-12-20T11:11:42.567Z,-0.71
2022-12-20T11:12:56.938Z,-0.60
2022-12-20T11:14:18.892Z,-0.43
2022-12-20T11:15:34.176Z,-0.45
2022-12-20T11:16:44.712Z,-0.54
2022-12-20T11:17:53.761Z,-0.54
2022-12-20T11:19:25.375Z,-0.45
2022-12-20T11:20:48.490Z,-0.36
2022-12-20T11:22:12.712Z,-0.22
2022-12-20T11:23:38.864Z,-0.18
2022-12-20T11:25:02.768Z,-0.02
2022-12-20T11:26:39.430Z,0.02
2022-12-20T11:28:09.351Z,-0.15
2022-12-20T11:29:50.723Z,0.24
2022-12-20T11:31:18.887Z,0.87
2022-12-20T11:32:53.324Z,1.25
2022-12-20T11:34:20.040Z,1.35
2022-12-20T11:35:42.078Z,1.42
2022-12-20T11:37:20.692Z,1.39
2022-12-20T11:38:45.670Z,1.21
2022-12-20T11:40:24.840Z,1.08
2022-12-20T11:41:47.813Z,0.99
2022-12-20T11:43:17.462Z,0.84
2022-12-20T11:44:55.357Z,0.77
2022-12-20T11:46:31.045Z,0.82
2022-12-20T11:48:10.071Z,0.84
2022-12-20T11:50:03.153Z,0.78
2022-12-20T11:51:27.169Z,0.75
2022-12-20T11:52:49.738Z,0.67
2022-12-20T11:54:13.791Z,0.68
2022-12-20T11:55:27.901Z,0.48
2022-12-20T11:56:44.770Z,0.38
2022-12-20T11:58:21.074Z,0.09
2022-12-20T11:59:40.676Z,0.13
2022-12-20T12:00:59.276Z,0.05
2022-12-20T12:02:16.167Z,0.14
2022-12-20T12:03:30.856Z,-0.01
2022-12-20T12:04:47.072Z,-0.14
2022-12-20T12:05:59.205Z,-0.27
2022-12-20T12:07:16.641Z,-0.19
2022-12-20T12:08:34.530Z,-0.15
2022-12-20T12:09:51.278Z,-0.29
2022-12-20T12:11:25.719Z,-0.39
2022-12-20T12:12:45.669Z,-0.44
2022-12-20T12:13:51.476Z,-0.46
2022-12-20T12:15:14.317Z,-0.42
2022-12-20T12:16:30.882Z,-0.56
2022-12-20T12:17:50.361Z,-0.60
2022-12-20T12:18:56.948Z,-0.59
2022-12-20T12:20:29.925Z,-0.55
2022-12-20T12:21:45.836Z,-0.53
2022-12-20T12:23:01.713Z,-0.49
2022-12-20T12:24:26.983Z,-0.46
2022-12-20T12:25:30.436Z,-0.38
2022-12-20T12:26:41.212Z,-0.33
2022-12-20T12:27:48.724Z,-0.39
2022-12-20T12:28:57.274Z,-0.54
2022-12-20T12:30:03.447Z,-0.60
2022-12-20T12:31:21.676Z,-0.71
2022-12-20T12:32:44.134Z,-0.58
2022-12-20T12:34:08.807Z,-0.66
2022-12-20T12:35:56.292Z,-0.63
2022-12-20T12:37:51.160Z,-0.68
2022-12-20T12:39:49.530Z,-0.62
2022-12-20T12:41:43.277Z,-0.63
2022-12-20T12:43:39.083Z,-0.67
2022-12-20T12:44:57.748Z,-0.77
2022-12-20T12:46:14.675Z,-0.80
2022-12-20T12:47:39.900Z,-0.69
2022-12-20T12:48:57.698Z,-0.66
2022-12-20T12:50:08.246Z,-0.64
2022-12-20T12:51:22.227Z,-0.70
2022-12-20T12:52:46.603Z,-0.68
2022-12-20T12:53:56.934Z,-0.63
2022-12-20T12:55:03.194Z,-0.73
2022-12-20T12:56:45.475Z,-0.64
2022-12-20T12:57:57.928Z,-0.71
2022-12-20T12:59:54.729Z,-0.71
2022-12-20T13:01:05.205Z,-0.68
2022-12-20T13:02:37.546Z,-0.65
2022-12-20T13:04:09.731Z,-0.82
2022-12-20T13:05:38.675Z,-0.73
2022-12-20T13:07:00.340Z,-0.70
2022-12-20T13:08:17.712Z,-0.75
2022-12-20T13:09:38.144Z,-0.75
2022-12-20T13:11:06.199Z,-0.76
2022-12-20T13:13:02.879Z,-0.80
2022-12-20T13:14:30.895Z,-0.82
2022-12-20T13:16:16.908Z,-1.01
2022-12-20T13:17:53.073Z,-1.13
2022-12-20T13:19:16.611Z,-1.13
2022-12-20T13:20:24.541Z,-1.03
2022-12-20T13:21:40.463Z,-1.00
2022-12-20T13:23:17.987Z,-1.08
2022-12-20T13:24:55.235Z,-1.09
2022-12-20T13:25:58.887Z,-1.21
2022-12-20T13:27:24.636Z,-1.19
2022-12-20T13:28:49.631Z,-1.26
2022-12-20T13:30:19.083Z,-1.15
2022-12-20T13:31:36.972Z,-1.19
2022-12-20T13:33:15.832Z,-1.07
2022-12-20T13:34:41.553Z,-1.09
2022-12-20T13:36:19.684Z,-1.14
2022-12-20T13:37:57.361Z,-1.24
2022-12-20T13:39:33.650Z,-1.21
2022-12-20T13:40:45.616Z,-1.20
2022-12-20T13:42:18.573Z,-1.24
2022-12-20T13:43:37.225Z,-1.18
2022-12-20T13:44:48.790Z,-1.17
2022-12-20T13:46:06.242Z,-1.16
2022-12-20T13:47:37.680Z,-1.18
2022-12-20T13:48:54.207Z,-1.16
2022-12-20T13:50:05.808Z,-1.27
2022-12-20T13:51:10.683Z,-1.24
2022-12-20T13:52:33.158Z,-1.30
2022-12-20T13:53:42.436Z,-1.34
2022-12-20T13:54:50.790Z,-1.38
2022-12-20T13:55:59.236Z,-1.46
2022-12-20T13:57:06.701Z,-1.41
2022-12-20T13:58:25.166Z,-1.49
2022-12-20T13:59:33.837Z,-1.56
2022-12-20T14:00:41.520Z,-1.52
2022-12-20T14:01:57.062Z,-1.52
2022-12-20T14:03:03.695Z,-1.52
2022-12-20T14:04:10.959Z,-1.54
2022-12-20T14:05:26.728Z,-1.56
2022-12-20T14:06:33.186Z,-1.63
2022-12-20T14:07:41.992Z,-1.60
2022-12-20T14:08:52.187Z,-1.60
2022-12-20T14:10:02.968Z,-1.62
2022-12-20T14:11:16.047Z,-1.58
2022-12-20T14:12:27.380Z,-1.56
2022-12-20T14:13:39.678Z,-1.64
2022-12-20T14:14:49.999Z,-1.61
2022-12-20T14:15:58.646Z,-1.69
2022-12-20T14:17:19.848Z,-1.67
2022-12-20T14:18:29.049Z,-1.76
2022-12-20T14:19:33.351Z,-1.74
2022-12-20T14:20:42.408Z,-1.77
2022-12-20T14:21:50.594Z,-1.71
2022-12-20T14:23:06.439Z,-1.83
2022-12-20T14:24:21.701Z,-1.89
2022-12-20T14:25:38.706Z,-1.90
2022-12-20T14:26:48.649Z,-1.91
2022-12-20T14:27:52.295Z,-1.96
2022-12-20T14:29:07.981Z,-2.05
2022-12-20T14:30:35.004Z,-2.07
2022-12-20T14:31:46.666Z,-2.02
2022-12-20T14:32:50.967Z,-2.08
2022-12-20T14:34:10.711Z,-2.07
2022-12-20T14:35:21.564Z,-2.04
2022-12-20T14:36:27.611Z,-2.04
2022-12-20T14:37:36.474Z,-2.00
2022-12-20T14:38:45.382Z,-1.96
2022-12-20T14:40:19.586Z,-1.89
2022-12-20T14:41:39.277Z,-1.94
2022-12-20T14:42:46.644Z,-1.96
2022-12-20T14:44:07.132Z,-1.91
2022-12-20T14:45:21.162Z,-1.93
2022-12-20T14:46:27.520Z,-1.91
2022-12-20T14:47:34.533Z,-1.95
2022-12-20T14:48:41.502Z,-2.02
2022-12-20T14:49:55.463Z,-1.99
2022-12-20T14:51:01.604Z,-2.01
2022-12-20T14:52:20.928Z,-2.04
2022-12-20T14:53:30.694Z,-2.11
2022-12-20T14:56:26.433Z,-2.08
2022-12-20T14:57:48.999Z,-2.13
2022-12-20T14:59:17.532Z,-2.17
2022-12-20T15:00:28.684Z,-2.18
2022-12-20T15:01:35.837Z,-2.23
2022-12-20T15:02:55.474Z,-2.20
2022-12-20T15:04:01.010Z,-2.21
2022-12-20T15:05:27.658Z,-2.21
2022-12-20T15:06:46.045Z,-2.28
2022-12-20T15:07:49.565Z,-2.25
2022-12-20T15:08:55.545Z,-2.23
2022-12-20T15:10:01.941Z,-2.20
2022-12-20T15:11:24.588Z,-2.12
2022-12-20T15:12:32.652Z,-2.11
2022-12-20T15:13:45.736Z,-2.08
2022-12-20T15:14:54.862Z,-2.04
2022-12-20T15:16:04.817Z,-2.07
2022-12-20T15:17:15.927Z,-2.07
2022-12-20T15:18:24.832Z,-2.08
2022-12-20T15:19:31.630Z,-2.04
2022-12-20T15:20:35.523Z,-2.00
2022-12-20T15:21:45.986Z,-1.99
2022-12-20T15:22:49.462Z,-2.02
2022-12-20T15:24:00.123Z,-2.00
2022-12-20T15:25:12.194Z,-1.98
2022-12-20T15:26:20.945Z,-2.02
2022-12-20T15:27:27.382Z,-2.02
2022-12-20T15:28:33.502Z,-2.19
2022-12-20T15:29:40.598Z,-2.07
2022-12-20T15:30:51.309Z,-2.26
2022-12-20T15:32:10.510Z,-2.12
2022-12-20T15:33:23.065Z,-2.20
2022-12-20T15:34:36.457Z,-2.19
2022-12-20T15:35:40.851Z,-2.19